sensor_id;sensor_type;location;lat;lon;timestamp;P1;durP1;ratioP1;P2;durP2;ratioP2
42096;SDS011;27754;45.414;11.084;2023-02-28T00:00:38;11.50;;;7.03;;
42096;SDS011;27754;45.414;11.084;2023-02-28T00:03:05;8.57;;;5.35;;
42096;SDS011;27754;45.414;11.084;2023-02-28T00:05:32;9.82;;;4.20;;
42096;SDS011;27754;45.414;11.084;2023-02-28T00:08:00;7.90;;;5.47;;
42096;SDS011;27754;45.414;11.084;2023-02-28T00:10:28;8.13;;;5.15;;
42096;SDS011;27754;45.414;11.084;2023-02-28T00:12:58;10.80;;;5.28;;
42096;SDS011;27754;45.414;11.084;2023-02-28T00:15:28;8.38;;;5.60;;
42096;SDS011;27754;45.414;11.084;2023-02-28T00:17:55;8.02;;;4.55;;
42096;SDS011;27754;45.414;11.084;2023-02-28T00:20:22;8.20;;;5.50;;
42096;SDS011;27754;45.414;11.084;2023-02-28T00:22:51;8.75;;;5.40;;
42096;SDS011;27754;45.414;11.084;2023-02-28T00:25:20;6.95;;;5.28;;
42096;SDS011;27754;45.414;11.084;2023-02-28T00:27:51;7.95;;;5.60;;
42096;SDS011;27754;45.414;11.084;2023-02-28T00:30:19;8.63;;;5.20;;
42096;SDS011;27754;45.414;11.084;2023-02-28T00:32:48;9.02;;;5.68;;
42096;SDS011;27754;45.414;11.084;2023-02-28T00:35:15;8.25;;;5.75;;
42096;SDS011;27754;45.414;11.084;2023-02-28T00:37:43;6.65;;;4.78;;
42096;SDS011;27754;45.414;11.084;2023-02-28T00:40:10;7.68;;;5.10;;
42096;SDS011;27754;45.414;11.084;2023-02-28T00:42:38;7.63;;;5.45;;
42096;SDS011;27754;45.414;11.084;2023-02-28T00:45:06;7.07;;;5.45;;
42096;SDS011;27754;45.414;11.084;2023-02-28T00:47:36;7.47;;;4.82;;
42096;SDS011;27754;45.414;11.084;2023-02-28T00:50:04;10.32;;;5.03;;
42096;SDS011;27754;45.414;11.084;2023-02-28T00:52:32;7.20;;;4.93;;
42096;SDS011;27754;45.414;11.084;2023-02-28T00:54:59;8.80;;;4.65;;
42096;SDS011;27754;45.414;11.084;2023-02-28T00:57:26;8.88;;;4.97;;
42096;SDS011;27754;45.414;11.084;2023-02-28T00:59:53;8.38;;;5.22;;
42096;SDS011;27754;45.414;11.084;2023-02-28T01:02:22;9.85;;;5.72;;
42096;SDS011;27754;45.414;11.084;2023-02-28T01:04:51;10.88;;;5.85;;
42096;SDS011;27754;45.414;11.084;2023-02-28T01:07:18;10.85;;;6.20;;
42096;SDS011;27754;45.414;11.084;2023-02-28T01:09:45;8.45;;;5.47;;
42096;SDS011;27754;45.414;11.084;2023-02-28T01:12:12;10.38;;;6.03;;
42096;SDS011;27754;45.414;11.084;2023-02-28T01:14:39;8.75;;;5.05;;
42096;SDS011;27754;45.414;11.084;2023-02-28T01:17:06;8.40;;;5.45;;
42096;SDS011;27754;45.414;11.084;2023-02-28T01:19:33;10.70;;;6.40;;
42096;SDS011;27754;45.414;11.084;2023-02-28T01:22:02;8.05;;;5.00;;
42096;SDS011;27754;45.414;11.084;2023-02-28T01:24:31;7.60;;;5.00;;
42096;SDS011;27754;45.414;11.084;2023-02-28T01:26:59;8.00;;;5.68;;
42096;SDS011;27754;45.414;11.084;2023-02-28T01:29:26;7.90;;;4.70;;
42096;SDS011;27754;45.414;11.084;2023-02-28T01:31:53;6.80;;;4.75;;
42096;SDS011;27754;45.414;11.084;2023-02-28T01:34:20;7.82;;;4.97;;
42096;SDS011;27754;45.414;11.084;2023-02-28T01:36:47;8.70;;;5.47;;
42096;SDS011;27754;45.414;11.084;2023-02-28T01:39:14;8.68;;;5.35;;
42096;SDS011;27754;45.414;11.084;2023-02-28T01:41:41;8.00;;;5.25;;
42096;SDS011;27754;45.414;11.084;2023-02-28T01:47:13;9.18;;;5.32;;
42096;SDS011;27754;45.414;11.084;2023-02-28T01:49:41;8.35;;;5.38;;
42096;SDS011;27754;45.414;11.084;2023-02-28T01:52:08;9.23;;;6.32;;
42096;SDS011;27754;45.414;11.084;2023-02-28T01:54:41;7.80;;;4.97;;
42096;SDS011;27754;45.414;11.084;2023-02-28T01:57:16;7.40;;;4.45;;
42096;SDS011;27754;45.414;11.084;2023-02-28T01:59:50;8.25;;;5.60;;
42096;SDS011;27754;45.414;11.084;2023-02-28T02:02:22;7.07;;;5.07;;
42096;SDS011;27754;45.414;11.084;2023-02-28T02:04:58;9.85;;;5.60;;
42096;SDS011;27754;45.414;11.084;2023-02-28T02:07:30;7.82;;;4.50;;
42096;SDS011;27754;45.414;11.084;2023-02-28T02:10:13;7.80;;;5.10;;
42096;SDS011;27754;45.414;11.084;2023-02-28T02:18:24;10.10;;;5.57;;
42096;SDS011;27754;45.414;11.084;2023-02-28T02:24:00;7.90;;;5.15;;
42096;SDS011;27754;45.414;11.084;2023-02-28T02:35:27;11.35;;;6.40;;
42096;SDS011;27754;45.414;11.084;2023-02-28T02:41:01;9.23;;;4.95;;
42096;SDS011;27754;45.414;11.084;2023-02-28T02:43:48;9.15;;;5.53;;
42096;SDS011;27754;45.414;11.084;2023-02-28T02:46:37;9.32;;;5.72;;
42096;SDS011;27754;45.414;11.084;2023-02-28T02:49:09;6.97;;;5.03;;
42096;SDS011;27754;45.414;11.084;2023-02-28T02:51:42;11.80;;;5.50;;
42096;SDS011;27754;45.414;11.084;2023-02-28T02:54:23;7.90;;;5.45;;
42096;SDS011;27754;45.414;11.084;2023-02-28T02:56:55;7.63;;;5.20;;
42096;SDS011;27754;45.414;11.084;2023-02-28T02:59:25;7.82;;;5.45;;
42096;SDS011;27754;45.414;11.084;2023-02-28T03:01:57;8.55;;;5.40;;
42096;SDS011;27754;45.414;11.084;2023-02-28T03:04:28;8.32;;;5.47;;
42096;SDS011;27754;45.414;11.084;2023-02-28T03:06:59;7.03;;;4.40;;
42096;SDS011;27754;45.414;11.084;2023-02-28T03:09:26;9.85;;;4.50;;
42096;SDS011;27754;45.414;11.084;2023-02-28T03:11:54;7.93;;;5.10;;
42096;SDS011;27754;45.414;11.084;2023-02-28T03:14:25;7.57;;;4.90;;
42096;SDS011;27754;45.414;11.084;2023-02-28T03:17:23;10.32;;;5.65;;
42096;SDS011;27754;45.414;11.084;2023-02-28T03:23:56;7.60;;;5.43;;
42096;SDS011;27754;45.414;11.084;2023-02-28T03:26:27;9.13;;;5.22;;
42096;SDS011;27754;45.414;11.084;2023-02-28T03:34:32;9.50;;;5.22;;
42096;SDS011;27754;45.414;11.084;2023-02-28T03:37:04;8.98;;;5.20;;
42096;SDS011;27754;45.414;11.084;2023-02-28T03:39:38;8.32;;;6.18;;
42096;SDS011;27754;45.414;11.084;2023-02-28T03:42:15;7.82;;;5.78;;
42096;SDS011;27754;45.414;11.084;2023-02-28T03:44:47;9.75;;;5.90;;
42096;SDS011;27754;45.414;11.084;2023-02-28T03:52:51;9.63;;;5.30;;
42096;SDS011;27754;45.414;11.084;2023-02-28T03:55:28;8.07;;;5.18;;
42096;SDS011;27754;45.414;11.084;2023-02-28T03:58:05;9.82;;;5.53;;
42096;SDS011;27754;45.414;11.084;2023-02-28T04:00:40;7.00;;;4.50;;
42096;SDS011;27754;45.414;11.084;2023-02-28T04:03:13;8.02;;;5.00;;
42096;SDS011;27754;45.414;11.084;2023-02-28T04:06:14;19.23;;;6.70;;
42096;SDS011;27754;45.414;11.084;2023-02-28T04:08:34;8.48;;;5.30;;
42096;SDS011;27754;45.414;11.084;2023-02-28T04:11:07;7.88;;;5.20;;
42096;SDS011;27754;45.414;11.084;2023-02-28T04:13:43;10.68;;;6.35;;
42096;SDS011;27754;45.414;11.084;2023-02-28T04:16:12;11.00;;;5.85;;
42096;SDS011;27754;45.414;11.084;2023-02-28T04:18:59;7.90;;;5.25;;
42096;SDS011;27754;45.414;11.084;2023-02-28T04:21:29;9.93;;;6.00;;
42096;SDS011;27754;45.414;11.084;2023-02-28T04:24:00;7.30;;;4.88;;
42096;SDS011;27754;45.414;11.084;2023-02-28T04:26:29;7.63;;;5.25;;
42096;SDS011;27754;45.414;11.084;2023-02-28T04:28:59;7.25;;;5.05;;
42096;SDS011;27754;45.414;11.084;2023-02-28T04:31:26;8.75;;;5.90;;
42096;SDS011;27754;45.414;11.084;2023-02-28T04:33:54;8.93;;;5.75;;
42096;SDS011;27754;45.414;11.084;2023-02-28T04:36:21;8.77;;;5.53;;
42096;SDS011;27754;45.414;11.084;2023-02-28T04:38:49;6.53;;;4.90;;
42096;SDS011;27754;45.414;11.084;2023-02-28T04:41:16;8.80;;;5.90;;
42096;SDS011;27754;45.414;11.084;2023-02-28T04:43:43;8.32;;;5.65;;
42096;SDS011;27754;45.414;11.084;2023-02-28T04:46:10;11.13;;;5.50;;
42096;SDS011;27754;45.414;11.084;2023-02-28T04:48:38;8.48;;;5.60;;
42096;SDS011;27754;45.414;11.084;2023-02-28T04:51:07;8.38;;;6.00;;
42096;SDS011;27754;45.414;11.084;2023-02-28T04:53:37;7.95;;;5.13;;
42096;SDS011;27754;45.414;11.084;2023-02-28T04:56:05;9.98;;;5.85;;
42096;SDS011;27754;45.414;11.084;2023-02-28T04:58:36;9.93;;;5.57;;
42096;SDS011;27754;45.414;11.084;2023-02-28T05:01:04;13.60;;;5.95;;
42096;SDS011;27754;45.414;11.084;2023-02-28T05:03:50;8.98;;;5.35;;
42096;SDS011;27754;45.414;11.084;2023-02-28T05:06:18;9.90;;;6.53;;
42096;SDS011;27754;45.414;11.084;2023-02-28T05:08:46;8.45;;;5.13;;
42096;SDS011;27754;45.414;11.084;2023-02-28T05:11:15;11.07;;;6.45;;
42096;SDS011;27754;45.414;11.084;2023-02-28T05:13:45;10.27;;;5.90;;
42096;SDS011;27754;45.414;11.084;2023-02-28T05:16:13;9.07;;;5.38;;
42096;SDS011;27754;45.414;11.084;2023-02-28T05:18:41;7.57;;;5.00;;
42096;SDS011;27754;45.414;11.084;2023-02-28T05:21:47;8.90;;;5.88;;
42096;SDS011;27754;45.414;11.084;2023-02-28T05:24:04;9.68;;;5.82;;
42096;SDS011;27754;45.414;11.084;2023-02-28T05:26:36;9.85;;;6.20;;
42096;SDS011;27754;45.414;11.084;2023-02-28T05:29:04;10.45;;;6.15;;
42096;SDS011;27754;45.414;11.084;2023-02-28T05:31:31;8.27;;;5.22;;
42096;SDS011;27754;45.414;11.084;2023-02-28T05:33:59;7.75;;;5.93;;
42096;SDS011;27754;45.414;11.084;2023-02-28T05:36:26;7.55;;;5.32;;
42096;SDS011;27754;45.414;11.084;2023-02-28T05:38:53;7.68;;;5.20;;
42096;SDS011;27754;45.414;11.084;2023-02-28T05:41:21;10.18;;;6.75;;
42096;SDS011;27754;45.414;11.084;2023-02-28T05:43:48;8.95;;;5.95;;
42096;SDS011;27754;45.414;11.084;2023-02-28T05:46:15;7.07;;;4.78;;
42096;SDS011;27754;45.414;11.084;2023-02-28T05:48:42;8.88;;;5.38;;
42096;SDS011;27754;45.414;11.084;2023-02-28T05:51:13;10.13;;;5.60;;
42096;SDS011;27754;45.414;11.084;2023-02-28T05:53:40;7.82;;;5.40;;
42096;SDS011;27754;45.414;11.084;2023-02-28T05:56:07;9.02;;;5.93;;
42096;SDS011;27754;45.414;11.084;2023-02-28T05:58:34;10.65;;;5.63;;
42096;SDS011;27754;45.414;11.084;2023-02-28T06:01:18;10.25;;;6.10;;
42096;SDS011;27754;45.414;11.084;2023-02-28T06:03:51;12.15;;;5.50;;
42096;SDS011;27754;45.414;11.084;2023-02-28T06:06:18;10.98;;;6.55;;
42096;SDS011;27754;45.414;11.084;2023-02-28T06:08:45;9.68;;;6.18;;
42096;SDS011;27754;45.414;11.084;2023-02-28T06:11:12;15.15;;;5.97;;
42096;SDS011;27754;45.414;11.084;2023-02-28T06:13:39;17.52;;;7.30;;
42096;SDS011;27754;45.414;11.084;2023-02-28T06:16:07;12.68;;;6.50;;
42096;SDS011;27754;45.414;11.084;2023-02-28T06:18:37;11.43;;;6.30;;
42096;SDS011;27754;45.414;11.084;2023-02-28T06:21:04;10.27;;;6.35;;
42096;SDS011;27754;45.414;11.084;2023-02-28T06:23:31;12.23;;;6.03;;
42096;SDS011;27754;45.414;11.084;2023-02-28T06:25:58;9.40;;;6.07;;
42096;SDS011;27754;45.414;11.084;2023-02-28T06:28:25;10.07;;;6.40;;
42096;SDS011;27754;45.414;11.084;2023-02-28T06:30:52;10.05;;;5.90;;
42096;SDS011;27754;45.414;11.084;2023-02-28T06:33:20;8.75;;;6.55;;
42096;SDS011;27754;45.414;11.084;2023-02-28T06:35:49;12.40;;;6.47;;
42096;SDS011;27754;45.414;11.084;2023-02-28T06:38:17;15.60;;;6.43;;
42096;SDS011;27754;45.414;11.084;2023-02-28T06:40:44;11.25;;;6.78;;
42096;SDS011;27754;45.414;11.084;2023-02-28T06:43:18;13.10;;;6.18;;
42096;SDS011;27754;45.414;11.084;2023-02-28T06:45:45;9.80;;;6.00;;
42096;SDS011;27754;45.414;11.084;2023-02-28T06:48:12;10.30;;;6.90;;
42096;SDS011;27754;45.414;11.084;2023-02-28T06:50:40;26.27;;;7.07;;
42096;SDS011;27754;45.414;11.084;2023-02-28T06:53:07;23.52;;;7.82;;
42096;SDS011;27754;45.414;11.084;2023-02-28T06:55:33;12.30;;;6.35;;
42096;SDS011;27754;45.414;11.084;2023-02-28T06:58:00;9.77;;;5.50;;
42096;SDS011;27754;45.414;11.084;2023-02-28T07:00:27;10.88;;;6.28;;
42096;SDS011;27754;45.414;11.084;2023-02-28T07:02:55;12.98;;;6.82;;
42096;SDS011;27754;45.414;11.084;2023-02-28T07:05:22;10.70;;;6.75;;
42096;SDS011;27754;45.414;11.084;2023-02-28T07:07:49;14.85;;;6.13;;
42096;SDS011;27754;45.414;11.084;2023-02-28T07:10:16;11.35;;;6.78;;
42096;SDS011;27754;45.414;11.084;2023-02-28T07:12:45;14.90;;;7.13;;
42096;SDS011;27754;45.414;11.084;2023-02-28T07:15:12;16.27;;;7.25;;
42096;SDS011;27754;45.414;11.084;2023-02-28T07:17:39;12.48;;;6.65;;
42096;SDS011;27754;45.414;11.084;2023-02-28T07:20:06;18.95;;;6.63;;
42096;SDS011;27754;45.414;11.084;2023-02-28T07:22:34;11.27;;;5.93;;
42096;SDS011;27754;45.414;11.084;2023-02-28T07:25:01;20.10;;;6.13;;
42096;SDS011;27754;45.414;11.084;2023-02-28T07:27:28;23.25;;;7.03;;
42096;SDS011;27754;45.414;11.084;2023-02-28T07:29:55;11.50;;;7.38;;
42096;SDS011;27754;45.414;11.084;2023-02-28T07:32:22;12.02;;;6.95;;
42096;SDS011;27754;45.414;11.084;2023-02-28T07:34:49;12.10;;;6.75;;
42096;SDS011;27754;45.414;11.084;2023-02-28T07:37:16;16.05;;;6.30;;
42096;SDS011;27754;45.414;11.084;2023-02-28T07:39:43;12.45;;;6.10;;
42096;SDS011;27754;45.414;11.084;2023-02-28T07:42:11;10.55;;;6.13;;
42096;SDS011;27754;45.414;11.084;2023-02-28T07:44:39;19.67;;;7.40;;
42096;SDS011;27754;45.414;11.084;2023-02-28T07:47:07;11.68;;;6.40;;
42096;SDS011;27754;45.414;11.084;2023-02-28T07:49:36;9.13;;;5.65;;
42096;SDS011;27754;45.414;11.084;2023-02-28T07:52:04;9.07;;;5.53;;
42096;SDS011;27754;45.414;11.084;2023-02-28T07:54:32;12.02;;;6.53;;
42096;SDS011;27754;45.414;11.084;2023-02-28T07:56:59;32.50;;;8.40;;
42096;SDS011;27754;45.414;11.084;2023-02-28T07:59:26;13.95;;;6.07;;
42096;SDS011;27754;45.414;11.084;2023-02-28T08:01:57;13.63;;;6.88;;
42096;SDS011;27754;45.414;11.084;2023-02-28T08:04:25;11.15;;;6.22;;
42096;SDS011;27754;45.414;11.084;2023-02-28T08:06:52;10.13;;;5.82;;
42096;SDS011;27754;45.414;11.084;2023-02-28T08:09:19;16.52;;;6.30;;
42096;SDS011;27754;45.414;11.084;2023-02-28T08:11:46;10.88;;;5.80;;
42096;SDS011;27754;45.414;11.084;2023-02-28T08:14:13;11.82;;;6.22;;
42096;SDS011;27754;45.414;11.084;2023-02-28T08:16:40;11.50;;;6.15;;
42096;SDS011;27754;45.414;11.084;2023-02-28T08:19:09;11.63;;;6.32;;
42096;SDS011;27754;45.414;11.084;2023-02-28T08:21:36;13.95;;;7.18;;
42096;SDS011;27754;45.414;11.084;2023-02-28T08:24:03;12.02;;;5.45;;
42096;SDS011;27754;45.414;11.084;2023-02-28T08:26:30;17.80;;;7.13;;
42096;SDS011;27754;45.414;11.084;2023-02-28T08:28:57;12.10;;;6.97;;
42096;SDS011;27754;45.414;11.084;2023-02-28T08:31:26;9.48;;;6.18;;
42096;SDS011;27754;45.414;11.084;2023-02-28T08:33:54;16.33;;;6.95;;
42096;SDS011;27754;45.414;11.084;2023-02-28T08:36:25;8.25;;;5.68;;
42096;SDS011;27754;45.414;11.084;2023-02-28T08:38:54;12.25;;;7.22;;
42096;SDS011;27754;45.414;11.084;2023-02-28T08:41:23;10.57;;;6.57;;
42096;SDS011;27754;45.414;11.084;2023-02-28T08:43:50;21.80;;;7.28;;
42096;SDS011;27754;45.414;11.084;2023-02-28T08:46:17;9.13;;;5.47;;
42096;SDS011;27754;45.414;11.084;2023-02-28T08:48:44;11.02;;;6.25;;
42096;SDS011;27754;45.414;11.084;2023-02-28T08:51:15;15.13;;;6.90;;
42096;SDS011;27754;45.414;11.084;2023-02-28T08:53:47;9.88;;;5.93;;
42096;SDS011;27754;45.414;11.084;2023-02-28T08:56:17;11.77;;;5.80;;
42096;SDS011;27754;45.414;11.084;2023-02-28T08:58:45;14.07;;;6.97;;
42096;SDS011;27754;45.414;11.084;2023-02-28T09:01:14;12.27;;;6.20;;
42096;SDS011;27754;45.414;11.084;2023-02-28T09:03:47;12.88;;;4.85;;
42096;SDS011;27754;45.414;11.084;2023-02-28T09:06:16;7.85;;;4.90;;
42096;SDS011;27754;45.414;11.084;2023-02-28T09:08:44;9.43;;;5.97;;
42096;SDS011;27754;45.414;11.084;2023-02-28T09:11:12;10.63;;;6.38;;
42096;SDS011;27754;45.414;11.084;2023-02-28T09:13:39;9.80;;;5.35;;
42096;SDS011;27754;45.414;11.084;2023-02-28T09:16:07;11.02;;;6.32;;
42096;SDS011;27754;45.414;11.084;2023-02-28T09:18:37;9.73;;;5.82;;
42096;SDS011;27754;45.414;11.084;2023-02-28T09:21:05;12.55;;;5.82;;
42096;SDS011;27754;45.414;11.084;2023-02-28T09:23:33;12.82;;;6.47;;
42096;SDS011;27754;45.414;11.084;2023-02-28T09:26:01;10.68;;;5.78;;
42096;SDS011;27754;45.414;11.084;2023-02-28T09:28:28;9.63;;;5.95;;
42096;SDS011;27754;45.414;11.084;2023-02-28T09:30:55;14.35;;;6.72;;
42096;SDS011;27754;45.414;11.084;2023-02-28T09:33:23;8.38;;;5.25;;
42096;SDS011;27754;45.414;11.084;2023-02-28T09:35:57;7.47;;;5.07;;
42096;SDS011;27754;45.414;11.084;2023-02-28T09:38:27;15.65;;;5.72;;
42096;SDS011;27754;45.414;11.084;2023-02-28T09:40:58;19.48;;;6.32;;
42096;SDS011;27754;45.414;11.084;2023-02-28T09:43:29;14.23;;;6.60;;
42096;SDS011;27754;45.414;11.084;2023-02-28T09:46:10;9.68;;;6.20;;
42096;SDS011;27754;45.414;11.084;2023-02-28T09:48:53;9.20;;;6.20;;
42096;SDS011;27754;45.414;11.084;2023-02-28T09:54:10;8.73;;;5.72;;
42096;SDS011;27754;45.414;11.084;2023-02-28T09:56:48;7.70;;;5.95;;
42096;SDS011;27754;45.414;11.084;2023-02-28T10:02:52;18.00;;;7.05;;
42096;SDS011;27754;45.414;11.084;2023-02-28T10:05:27;10.90;;;6.82;;
42096;SDS011;27754;45.414;11.084;2023-02-28T10:08:03;9.50;;;6.18;;
42096;SDS011;27754;45.414;11.084;2023-02-28T10:10:55;13.27;;;6.38;;
42096;SDS011;27754;45.414;11.084;2023-02-28T10:16:44;11.35;;;6.88;;
42096;SDS011;27754;45.414;11.084;2023-02-28T10:19:37;15.02;;;7.28;;
42096;SDS011;27754;45.414;11.084;2023-02-28T10:22:22;11.57;;;6.35;;
42096;SDS011;27754;45.414;11.084;2023-02-28T10:24:56;9.60;;;6.20;;
42096;SDS011;27754;45.414;11.084;2023-02-28T10:27:32;9.95;;;6.85;;
42096;SDS011;27754;45.414;11.084;2023-02-28T10:29:59;36.40;;;7.38;;
42096;SDS011;27754;45.414;11.084;2023-02-28T10:32:32;15.82;;;7.55;;
42096;SDS011;27754;45.414;11.084;2023-02-28T10:37:51;31.37;;;7.80;;
42096;SDS011;27754;45.414;11.084;2023-02-28T10:45:22;16.60;;;7.00;;
42096;SDS011;27754;45.414;11.084;2023-02-28T10:53:17;10.32;;;5.88;;
42096;SDS011;27754;45.414;11.084;2023-02-28T10:58:26;12.32;;;6.30;;
42096;SDS011;27754;45.414;11.084;2023-02-28T11:00:55;7.88;;;5.55;;
42096;SDS011;27754;45.414;11.084;2023-02-28T11:03:33;9.65;;;5.82;;
42096;SDS011;27754;45.414;11.084;2023-02-28T11:06:05;12.13;;;7.30;;
42096;SDS011;27754;45.414;11.084;2023-02-28T11:08:34;10.45;;;6.40;;
42096;SDS011;27754;45.414;11.084;2023-02-28T11:11:16;7.10;;;5.45;;
42096;SDS011;27754;45.414;11.084;2023-02-28T11:13:44;12.13;;;6.80;;
42096;SDS011;27754;45.414;11.084;2023-02-28T11:16:13;8.27;;;6.15;;
42096;SDS011;27754;45.414;11.084;2023-02-28T11:18:54;9.75;;;6.40;;
42096;SDS011;27754;45.414;11.084;2023-02-28T11:21:31;10.20;;;6.53;;
42096;SDS011;27754;45.414;11.084;2023-02-28T11:26:42;10.65;;;6.90;;
42096;SDS011;27754;45.414;11.084;2023-02-28T11:31:43;10.70;;;6.55;;
42096;SDS011;27754;45.414;11.084;2023-02-28T11:34:27;10.32;;;5.85;;
42096;SDS011;27754;45.414;11.084;2023-02-28T11:36:55;12.13;;;6.72;;
42096;SDS011;27754;45.414;11.084;2023-02-28T11:39:23;11.50;;;6.50;;
42096;SDS011;27754;45.414;11.084;2023-02-28T11:47:27;11.32;;;5.88;;
42096;SDS011;27754;45.414;11.084;2023-02-28T11:55:39;10.60;;;6.57;;
42096;SDS011;27754;45.414;11.084;2023-02-28T12:04:20;11.68;;;7.57;;
42096;SDS011;27754;45.414;11.084;2023-02-28T12:07:14;10.30;;;6.85;;
42096;SDS011;27754;45.414;11.084;2023-02-28T12:31:51;12.75;;;7.68;;
42096;SDS011;27754;45.414;11.084;2023-02-28T12:34:25;11.63;;;7.07;;
42096;SDS011;27754;45.414;11.084;2023-02-28T12:36:58;10.55;;;7.38;;
42096;SDS011;27754;45.414;11.084;2023-02-28T12:39:32;12.10;;;7.40;;
42096;SDS011;27754;45.414;11.084;2023-02-28T12:42:28;13.85;;;7.68;;
42096;SDS011;27754;45.414;11.084;2023-02-28T12:45:02;12.05;;;6.43;;
42096;SDS011;27754;45.414;11.084;2023-02-28T12:47:37;13.57;;;7.35;;
42096;SDS011;27754;45.414;11.084;2023-02-28T12:50:07;14.63;;;8.73;;
42096;SDS011;27754;45.414;11.084;2023-02-28T12:58:56;14.02;;;8.10;;
42096;SDS011;27754;45.414;11.084;2023-02-28T13:10:15;14.05;;;7.78;;
42096;SDS011;27754;45.414;11.084;2023-02-28T13:12:52;12.98;;;8.00;;
42096;SDS011;27754;45.414;11.084;2023-02-28T13:15:22;14.18;;;8.50;;
42096;SDS011;27754;45.414;11.084;2023-02-28T13:17:55;12.05;;;7.60;;
42096;SDS011;27754;45.414;11.084;2023-02-28T13:20:25;15.35;;;7.78;;
42096;SDS011;27754;45.414;11.084;2023-02-28T13:22:55;17.10;;;8.23;;
42096;SDS011;27754;45.414;11.084;2023-02-28T13:28:00;11.27;;;7.05;;
42096;SDS011;27754;45.414;11.084;2023-02-28T13:30:59;11.68;;;7.78;;
42096;SDS011;27754;45.414;11.084;2023-02-28T13:34:14;13.35;;;7.22;;
42096;SDS011;27754;45.414;11.084;2023-02-28T13:36:25;16.95;;;7.78;;
42096;SDS011;27754;45.414;11.084;2023-02-28T13:38:53;12.43;;;7.60;;
42096;SDS011;27754;45.414;11.084;2023-02-28T13:44:14;10.00;;;7.18;;
42096;SDS011;27754;45.414;11.084;2023-02-28T13:49:27;12.98;;;7.70;;
42096;SDS011;27754;45.414;11.084;2023-02-28T13:54:50;12.85;;;7.55;;
42096;SDS011;27754;45.414;11.084;2023-02-28T14:11:49;14.90;;;8.02;;
42096;SDS011;27754;45.414;11.084;2023-02-28T14:17:22;10.40;;;7.15;;
42096;SDS011;27754;45.414;11.084;2023-02-28T14:19:52;14.90;;;7.30;;
42096;SDS011;27754;45.414;11.084;2023-02-28T14:31:12;16.17;;;8.27;;
42096;SDS011;27754;45.414;11.084;2023-02-28T14:34:21;12.30;;;7.68;;
42096;SDS011;27754;45.414;11.084;2023-02-28T14:36:49;12.30;;;7.25;;
42096;SDS011;27754;45.414;11.084;2023-02-28T14:39:19;12.27;;;7.57;;
42096;SDS011;27754;45.414;11.084;2023-02-28T14:41:49;14.35;;;7.57;;
42096;SDS011;27754;45.414;11.084;2023-02-28T14:44:23;11.73;;;8.18;;
42096;SDS011;27754;45.414;11.084;2023-02-28T14:46:52;11.68;;;7.82;;
42096;SDS011;27754;45.414;11.084;2023-02-28T14:49:31;12.27;;;7.35;;
42096;SDS011;27754;45.414;11.084;2023-02-28T14:54:57;11.43;;;7.07;;
42096;SDS011;27754;45.414;11.084;2023-02-28T14:59:57;12.98;;;7.40;;
42096;SDS011;27754;45.414;11.084;2023-02-28T15:02:33;12.85;;;8.10;;
42096;SDS011;27754;45.414;11.084;2023-02-28T15:05:10;12.32;;;7.78;;
42096;SDS011;27754;45.414;11.084;2023-02-28T15:07:47;12.45;;;8.27;;
42096;SDS011;27754;45.414;11.084;2023-02-28T15:10:24;12.82;;;7.60;;
42096;SDS011;27754;45.414;11.084;2023-02-28T15:13:05;15.48;;;7.13;;
42096;SDS011;27754;45.414;11.084;2023-02-28T15:21:27;12.90;;;7.60;;
42096;SDS011;27754;45.414;11.084;2023-02-28T15:24:19;10.63;;;7.55;;
42096;SDS011;27754;45.414;11.084;2023-02-28T15:27:06;20.63;;;8.68;;
42096;SDS011;27754;45.414;11.084;2023-02-28T15:29:45;15.73;;;7.95;;
42096;SDS011;27754;45.414;11.084;2023-02-28T15:32:27;13.80;;;7.95;;
42096;SDS011;27754;45.414;11.084;2023-02-28T15:40:45;12.52;;;8.05;;
42096;SDS011;27754;45.414;11.084;2023-02-28T15:43:30;20.20;;;9.07;;
42096;SDS011;27754;45.414;11.084;2023-02-28T15:45:59;24.85;;;9.27;;
42096;SDS011;27754;45.414;11.084;2023-02-28T15:50:56;14.23;;;8.40;;
42096;SDS011;27754;45.414;11.084;2023-02-28T15:53:41;14.95;;;7.93;;
42096;SDS011;27754;45.414;11.084;2023-02-28T15:56:22;16.55;;;7.68;;
42096;SDS011;27754;45.414;11.084;2023-02-28T15:58:59;22.65;;;7.72;;
42096;SDS011;27754;45.414;11.084;2023-02-28T16:01:39;12.30;;;7.55;;
42096;SDS011;27754;45.414;11.084;2023-02-28T16:04:14;13.73;;;8.00;;
42096;SDS011;27754;45.414;11.084;2023-02-28T16:06:42;13.52;;;8.57;;
42096;SDS011;27754;45.414;11.084;2023-02-28T16:09:16;12.65;;;7.68;;
42096;SDS011;27754;45.414;11.084;2023-02-28T16:11:47;12.98;;;7.75;;
42096;SDS011;27754;45.414;11.084;2023-02-28T16:14:20;13.85;;;7.97;;
42096;SDS011;27754;45.414;11.084;2023-02-28T16:19:20;14.82;;;7.05;;
42096;SDS011;27754;45.414;11.084;2023-02-28T16:21:47;12.75;;;7.88;;
42096;SDS011;27754;45.414;11.084;2023-02-28T16:24:14;12.98;;;8.10;;
42096;SDS011;27754;45.414;11.084;2023-02-28T16:26:42;13.93;;;7.30;;
42096;SDS011;27754;45.414;11.084;2023-02-28T16:29:24;12.95;;;8.13;;
42096;SDS011;27754;45.414;11.084;2023-02-28T16:32:04;14.55;;;8.40;;
42096;SDS011;27754;45.414;11.084;2023-02-28T16:34:32;12.00;;;8.45;;
42096;SDS011;27754;45.414;11.084;2023-02-28T16:36:59;16.33;;;8.23;;
42096;SDS011;27754;45.414;11.084;2023-02-28T16:39:26;13.52;;;7.47;;
42096;SDS011;27754;45.414;11.084;2023-02-28T16:41:53;11.15;;;8.15;;
42096;SDS011;27754;45.414;11.084;2023-02-28T16:44:30;14.52;;;8.20;;
42096;SDS011;27754;45.414;11.084;2023-02-28T16:47:00;13.52;;;8.50;;
42096;SDS011;27754;45.414;11.084;2023-02-28T16:49:28;15.02;;;7.75;;
42096;SDS011;27754;45.414;11.084;2023-02-28T16:51:55;13.52;;;7.72;;
42096;SDS011;27754;45.414;11.084;2023-02-28T16:54:23;14.15;;;7.40;;
42096;SDS011;27754;45.414;11.084;2023-02-28T16:56:50;14.65;;;8.32;;
42096;SDS011;27754;45.414;11.084;2023-02-28T16:59:21;12.20;;;8.32;;
42096;SDS011;27754;45.414;11.084;2023-02-28T17:01:50;13.38;;;7.95;;
42096;SDS011;27754;45.414;11.084;2023-02-28T17:04:18;16.98;;;8.90;;
42096;SDS011;27754;45.414;11.084;2023-02-28T17:06:45;36.63;;;18.10;;
42096;SDS011;27754;45.414;11.084;2023-02-28T17:09:20;34.17;;;14.57;;
42096;SDS011;27754;45.414;11.084;2023-02-28T17:11:56;22.60;;;9.23;;
42096;SDS011;27754;45.414;11.084;2023-02-28T17:14:23;18.55;;;8.82;;
42096;SDS011;27754;45.414;11.084;2023-02-28T17:16:50;13.38;;;8.60;;
42096;SDS011;27754;45.414;11.084;2023-02-28T17:19:17;17.80;;;8.68;;
42096;SDS011;27754;45.414;11.084;2023-02-28T17:21:45;17.77;;;9.07;;
42096;SDS011;27754;45.414;11.084;2023-02-28T17:24:12;15.25;;;9.02;;
42096;SDS011;27754;45.414;11.084;2023-02-28T17:26:44;14.35;;;9.35;;
42096;SDS011;27754;45.414;11.084;2023-02-28T17:29:15;17.98;;;9.40;;
42096;SDS011;27754;45.414;11.084;2023-02-28T17:31:45;14.77;;;9.10;;
42096;SDS011;27754;45.414;11.084;2023-02-28T17:34:13;16.98;;;9.43;;
42096;SDS011;27754;45.414;11.084;2023-02-28T17:36:45;14.65;;;9.10;;
42096;SDS011;27754;45.414;11.084;2023-02-28T17:39:14;14.35;;;9.15;;
42096;SDS011;27754;45.414;11.084;2023-02-28T17:41:46;15.25;;;9.25;;
42096;SDS011;27754;45.414;11.084;2023-02-28T17:44:13;16.92;;;9.18;;
42096;SDS011;27754;45.414;11.084;2023-02-28T17:46:39;14.82;;;8.95;;
42096;SDS011;27754;45.414;11.084;2023-02-28T17:49:08;15.18;;;9.32;;
42096;SDS011;27754;45.414;11.084;2023-02-28T17:51:35;22.38;;;9.93;;